Estación Meteorológica Peña el Pijo (Robertgarden) [ 01/30/23 15:15:49 CET ]

Fecha Hora Presion(HPa) Temp (°C) Humedad % Rocio (°C) Viento ( m/s) Direccion Lluvia 1Hora(mm) Lluvia 24H(mm) LLuvia Total(mm)
2010-Dec-23 01:01:17 987.500 1.0 91 -0.3         16.57
2010-Dec-23 02:05:17 986.800 0.9 92 -0.3         16.57
2010-Dec-23 03:01:14 986.900 1.3 93 0.2         16.57
2010-Dec-23 04:01:12 987.000 1.8 93 0.8         16.57
2010-Dec-23 05:01:14 986.900 3.1 93 2.0         16.57
2010-Dec-23 06:01:13 987.200 3.5 94 2.6         16.57
2010-Dec-23 07:01:13 987.500 5.0 93 4.0         16.57
2010-Dec-23 08:01:12 988.200 4.5 92 3.3         16.57
2010-Dec-23 09:01:12 988.800 5.3 90 3.8         16.57
2010-Dec-23 10:01:14 989.800 5.5 89 3.8         16.57
2010-Dec-23 11:01:14 990.600 5.5 89 3.8         16.57
2010-Dec-23 12:01:11 991.100 6.4 87 4.4         16.57
2010-Dec-23 13:01:11 991.000 6.9 86 4.7         16.57
2010-Dec-23 14:01:16 990.900 7.3 69 2.0 1.5 SSW     16.57
2010-Dec-23 15:01:14 991.100 6.7 70 1.6         16.57
2010-Dec-23 16:01:13 991.700 4.9 74 0.6         16.57
2010-Dec-23 17:01:12 992.500 4.2 74 -0.1 1.8 SSW     16.57
2010-Dec-23 18:01:14 993.300 3.5 74 -0.7         16.57
2010-Dec-23 19:01:16 995.700 3.0 78 -0.5 1.8 NE     16.57
2010-Dec-23 20:01:12 996.400 1.9 85 -0.4         16.57
2010-Dec-23 21:01:12 997.800 1.3 89 -0.4 2.7 SSE     16.57
2010-Dec-23 22:01:14 998.400 0.9 90 -0.6         16.57
2010-Dec-23 23:01:17 999.400 0.5 91 -0.8         16.57

Temperatura Máxima:    Temperatura Mínima:
Presión Máxima:999.400 Hpa    Presión Mínima:986.800 Hpa


Volver